Time,TemperatureF,DewpointF,PressureIn,WindDirection,WindDirectionDegrees,WindSpeedMPH,WindSpeedGustMPH,Humidity,HourlyPrecipIn,Conditions,Clouds,dailyrainin,SoftwareType,DateUTC
2013-07-07 00:05:00,61.5,56.3,30.40,NE,45,0.0,0.0,83,0.00,,,-99.99,open3600,2013-07-06 22:05:00,
2013-07-07 00:21:00,61.3,56.1,30.40,NE,45,0.0,0.0,83,0.00,,,-99.99,open3600,2013-07-06 22:21:00,
2013-07-07 00:37:00,61.2,55.9,30.40,NE,45,0.0,0.0,83,0.00,,,-99.99,open3600,2013-07-06 22:37:00,
2013-07-07 00:53:00,61.2,55.9,30.40,NE,45,0.0,0.0,83,0.00,,,-99.99,open3600,2013-07-06 22:53:00,
2013-07-07 01:08:00,61.0,55.8,30.40,NE,45,0.0,0.0,83,0.00,,,-99.99,open3600,2013-07-06 23:08:00,
2013-07-07 01:40:00,72.3,67.8,-100.00,ENE,68,0.0,-999.0,86,-99.99,,,-99.99,open3600,2013-07-06 23:40:00,
2013-07-07 01:42:00,60.4,55.6,30.40,NE,45,0.0,0.0,84,0.00,,,-99.99,open3600,2013-07-06 23:42:00,
2013-07-07 02:00:00,60.4,55.6,30.40,NE,45,0.0,0.0,84,0.00,,,-99.99,open3600,2013-07-07 00:00:00,
2013-07-07 02:32:00,59.7,54.9,30.40,NE,45,0.0,0.0,84,0.00,,,-99.99,open3600,2013-07-07 00:32:00,
2013-07-07 03:26:00,59.9,55.0,30.38,NE,45,0.0,0.0,84,0.00,,,-99.99,open3600,2013-07-07 01:26:00,
2013-07-07 03:42:00,59.7,54.9,30.38,NE,45,0.0,0.0,84,0.00,,,-99.99,open3600,2013-07-07 01:42:00,
2013-07-07 03:57:00,59.2,54.3,30.38,NE,45,0.0,0.0,84,0.00,,,-99.99,open3600,2013-07-07 01:57:00,
2013-07-07 04:29:00,59.0,54.1,30.38,NE,45,0.0,0.0,84,0.00,,,-99.99,open3600,2013-07-07 02:29:00,
2013-07-07 05:01:00,58.8,54.3,30.38,NE,45,0.0,0.0,85,0.00,,,-99.99,open3600,2013-07-07 03:01:00,
2013-07-07 05:34:00,59.0,54.5,30.38,NE,45,0.0,0.0,85,0.00,,,-99.99,open3600,2013-07-07 03:34:00,
2013-07-07 06:08:00,59.0,54.5,30.38,NE,45,0.0,0.0,85,0.00,,,-99.99,open3600,2013-07-07 04:08:00,
2013-07-07 06:24:00,59.4,54.5,30.38,NE,45,0.0,0.0,84,0.00,,,-99.99,open3600,2013-07-07 04:24:00,
2013-07-07 06:39:00,59.9,55.0,30.39,NE,45,0.0,0.0,84,0.00,,,-99.99,open3600,2013-07-07 04:39:00,
2013-07-07 06:55:00,60.4,55.6,30.38,NE,45,0.0,0.0,84,0.00,,,-99.99,open3600,2013-07-07 04:55:00,
2013-07-07 07:28:00,61.3,56.5,30.39,NNE,22,0.0,0.0,84,-99.99,,,-99.99,open3600,2013-07-07 05:28:00,
2013-07-07 07:43:00,61.5,56.3,30.39,NNE,22,0.0,0.0,83,-99.99,,,-99.99,open3600,2013-07-07 05:43:00,
2013-07-07 07:59:00,62.2,57.0,30.40,NNE,22,0.0,0.0,83,-99.99,,,-99.99,open3600,2013-07-07 05:59:00,
2013-07-07 08:32:00,64.8,58.1,30.40,NNE,22,0.0,0.0,79,0.00,,,-99.99,open3600,2013-07-07 06:32:00,
2013-07-07 08:49:00,65.3,57.9,30.40,NNE,22,0.0,0.0,77,0.00,,,-99.99,open3600,2013-07-07 06:49:00,
2013-07-07 09:07:00,66.0,58.6,30.41,NNE,22,0.0,0.0,77,0.00,,,-99.99,open3600,2013-07-07 07:07:00,
2013-07-07 09:23:00,66.6,59.2,30.41,NNE,22,0.0,0.0,77,0.00,,,-99.99,open3600,2013-07-07 07:23:00,
2013-07-07 09:38:00,67.1,59.0,30.41,NNE,22,0.0,0.0,75,0.00,,,-99.99,open3600,2013-07-07 07:38:00,
2013-07-07 09:54:00,67.8,59.2,30.41,NNE,22,0.0,0.0,74,0.00,,,-99.99,open3600,2013-07-07 07:54:00,
2013-07-07 10:09:00,68.2,58.5,30.41,NNE,22,0.0,0.0,71,0.00,,,-99.99,open3600,2013-07-07 08:09:00,
2013-07-07 10:25:00,68.7,58.5,30.41,NNE,22,0.0,0.0,70,0.00,,,-99.99,open3600,2013-07-07 08:25:00,
2013-07-07 10:41:00,69.1,58.8,30.41,NNE,22,0.0,0.0,70,0.00,,,-99.99,open3600,2013-07-07 08:41:00,
2013-07-07 10:56:00,69.4,59.2,30.41,NNE,22,0.0,0.0,70,0.00,,,-99.99,open3600,2013-07-07 08:56:00,
2013-07-07 11:12:00,69.6,59.4,30.41,NE,45,0.0,0.0,70,0.00,,,-99.99,open3600,2013-07-07 09:12:00,
2013-07-07 11:27:00,70.0,58.1,30.41,ENE,68,0.0,0.0,66,0.00,,,-99.99,open3600,2013-07-07 09:27:00,
2013-07-07 11:43:00,69.4,57.6,30.41,ENE,68,0.0,0.0,66,0.00,,,-99.99,open3600,2013-07-07 09:43:00,
2013-07-07 11:59:00,70.0,58.1,30.41,ENE,68,0.0,0.0,66,0.00,,,-99.99,open3600,2013-07-07 09:59:00,
2013-07-07 12:14:00,69.6,56.5,30.41,NE,45,0.0,0.0,63,0.00,,,-99.99,open3600,2013-07-07 10:14:00,
2013-07-07 12:30:00,70.7,58.8,30.41,North,0,0.0,0.0,66,0.00,,,-99.99,open3600,2013-07-07 10:30:00,
2013-07-07 12:46:00,70.7,58.3,30.41,NW,315,0.1,0.0,65,0.00,,,-99.99,open3600,2013-07-07 10:46:00,
2013-07-07 13:02:00,70.5,57.7,30.41,NNE,22,0.0,0.0,64,0.00,,,-99.99,open3600,2013-07-07 11:02:00,
2013-07-07 13:17:00,71.2,57.9,30.41,NNW,338,0.0,0.0,63,0.00,,,-99.99,open3600,2013-07-07 11:17:00,
2013-07-07 13:33:00,71.4,56.3,30.41,NNE,22,0.0,0.0,59,0.00,,,-99.99,open3600,2013-07-07 11:33:00,
2013-07-07 13:49:00,71.2,57.0,30.41,NW,315,0.0,0.0,61,0.00,,,-99.99,open3600,2013-07-07 11:49:00,
2013-07-07 14:04:00,71.4,57.7,30.40,NW,315,0.0,0.0,62,0.00,,,-99.99,open3600,2013-07-07 12:04:00,
2013-07-07 14:20:00,71.4,57.7,30.40,North,0,0.0,0.0,62,0.00,,,-99.99,open3600,2013-07-07 12:20:00,
2013-07-07 14:36:00,71.4,55.4,30.40,North,0,0.0,0.0,57,0.00,,,-99.99,open3600,2013-07-07 12:36:00,
2013-07-07 14:51:00,71.2,56.1,30.40,NNW,338,0.0,0.0,59,0.00,,,-99.99,open3600,2013-07-07 12:51:00,
2013-07-07 15:07:00,71.4,56.8,30.39,NE,45,0.0,0.0,60,0.00,,,-99.99,open3600,2013-07-07 13:07:00,
2013-07-07 15:22:00,71.8,56.3,30.39,NE,45,0.0,0.0,58,0.00,,,-99.99,open3600,2013-07-07 13:22:00,
2013-07-07 15:38:00,71.8,54.3,30.39,NE,45,0.0,0.0,54,0.00,,,-99.99,open3600,2013-07-07 13:38:00,
2013-07-07 16:11:00,72.1,55.6,30.39,North,0,0.0,0.0,56,0.00,,,-99.99,open3600,2013-07-07 14:11:00,
2013-07-07 16:27:00,72.0,54.9,30.39,NNE,22,0.0,0.0,55,0.00,,,-99.99,open3600,2013-07-07 14:27:00,
2013-07-07 16:42:00,72.1,56.1,30.38,NNE,22,0.0,0.0,57,0.00,,,-99.99,open3600,2013-07-07 14:42:00,
2013-07-07 16:58:00,71.6,56.5,30.38,NE,45,0.0,0.0,59,0.00,,,-99.99,open3600,2013-07-07 14:58:00,
2013-07-07 17:31:00,71.8,56.3,30.37,NW,315,0.0,0.0,58,0.00,,,-99.99,open3600,2013-07-07 15:31:00,
2013-07-07 17:46:00,71.8,55.8,30.37,NNW,338,0.0,0.0,57,0.00,,,-99.99,open3600,2013-07-07 15:46:00,
2013-07-07 18:02:00,71.6,56.1,30.37,NE,45,0.0,0.0,58,0.00,,,-99.99,open3600,2013-07-07 16:02:00,
2013-07-07 18:33:00,71.2,56.1,30.36,NW,315,0.0,0.0,59,0.00,,,-99.99,open3600,2013-07-07 16:33:00,
2013-07-07 18:49:00,71.2,56.7,30.36,NNW,338,0.0,0.0,60,0.00,,,-99.99,open3600,2013-07-07 16:49:00,
2013-07-07 19:06:00,71.1,56.5,30.36,NNW,338,0.0,0.0,60,0.00,,,-99.99,open3600,2013-07-07 17:06:00,
2013-07-07 19:21:00,70.7,56.1,30.36,North,0,0.0,0.0,60,0.00,,,-99.99,open3600,2013-07-07 17:21:00,
2013-07-07 19:54:00,70.0,56.8,30.36,North,0,0.0,0.0,63,0.00,,,-99.99,open3600,2013-07-07 17:54:00,
2013-07-07 20:10:00,69.4,57.6,30.37,North,0,0.0,0.0,66,0.00,,,-99.99,open3600,2013-07-07 18:10:00,
2013-07-07 20:26:00,68.5,57.2,30.37,North,0,0.0,0.0,67,0.00,,,-99.99,open3600,2013-07-07 18:26:00,
2013-07-07 20:43:00,67.6,56.7,30.37,North,0,0.0,0.0,68,0.00,,,-99.99,open3600,2013-07-07 18:43:00,
2013-07-07 20:54:00,66.9,55.9,30.37,North,0,0.0,0.0,68,0.00,,,-99.99,open3600,2013-07-07 18:54:00,
2013-07-07 21:10:00,66.4,56.3,30.37,NNW,338,0.0,0.0,70,0.00,,,-99.99,open3600,2013-07-07 19:10:00,
2013-07-07 21:27:00,65.5,55.8,30.38,NNW,338,0.0,-999.0,71,-99.99,,,-99.99,open3600,2013-07-07 19:27:00,
2013-07-07 21:43:00,64.8,55.2,30.38,NNW,338,0.0,0.0,71,0.00,,,-99.99,open3600,2013-07-07 19:43:00,
2013-07-07 21:58:00,64.0,54.9,30.38,NNW,338,0.0,0.0,72,0.00,,,-99.99,open3600,2013-07-07 19:58:00,
2013-07-07 22:14:00,63.3,54.5,30.39,NNW,338,0.0,0.0,73,0.00,,,-99.99,open3600,2013-07-07 20:14:00,
2013-07-07 22:30:00,62.8,54.3,30.39,NNW,338,0.0,0.0,74,0.00,,,-99.99,open3600,2013-07-07 20:30:00,
2013-07-07 22:45:00,62.2,53.8,30.40,NNW,338,0.0,0.0,74,0.00,,,-99.99,open3600,2013-07-07 20:45:00,
2013-07-07 23:01:00,61.7,53.8,30.40,NNW,338,0.0,0.0,75,0.00,,,-99.99,open3600,2013-07-07 21:01:00,
2013-07-07 23:16:00,61.3,53.4,30.40,NNW,338,0.0,0.0,75,0.00,,,-99.99,open3600,2013-07-07 21:16:00,
2013-07-07 23:32:00,61.0,53.4,30.40,NNW,338,0.0,0.0,76,0.00,,,-99.99,open3600,2013-07-07 21:32:00,